Time;durP1;ratioP1;P1;durP2;ratioP2;P2;SDS_P1;SDS_P2;PMS_P1;PMS_P2;Temp;Humidity;BMP_temperature;BMP_pressure;BME280_temperature;BME280_humidity;BME280_pressure;Samples;Min_cycle;Max_cycle;Signal;HPM_P1;HPM_P2
2023/08/03 00:01:37;;;;;;;6.45;2.42;;;15.50;99.90;;;;;;8437632;28;20024;-77
2023/08/03 00:05:37;;;;;;;13.52;2.80;;;15.40;99.90;;;;;;8427406;28;20024;-77
2023/08/03 00:09:39;;;;;;;10.90;2.47;;;15.40;99.90;;;;;;8455441;28;20019;-77
2023/08/03 00:13:40;;;;;;;7.30;2.30;;;15.30;99.90;;;;;;8443790;28;20020;-77
2023/08/03 00:17:41;;;;;;;8.00;2.67;;;15.20;99.90;;;;;;8433837;28;20027;-78
2023/08/03 00:21:41;;;;;;;10.00;2.30;;;15.10;99.90;;;;;;8416718;28;20102;-78
2023/08/03 00:25:42;;;;;;;5.30;1.95;;;15.00;99.90;;;;;;8430027;28;20395;-78
2023/08/03 00:29:42;;;;;;;12.30;2.60;;;15.00;99.90;;;;;;8411693;28;20012;-77
2023/08/03 00:33:43;;;;;;;8.60;2.20;;;15.00;99.90;;;;;;8442075;28;20505;-77
2023/08/03 00:37:43;;;;;;;10.55;2.38;;;15.20;99.90;;;;;;8451444;28;20077;-77
2023/08/03 00:41:44;;;;;;;10.13;2.20;;;15.00;99.90;;;;;;8450167;28;20020;-77
2023/08/03 00:45:45;;;;;;;10.95;2.58;;;15.10;99.90;;;;;;8431021;28;20561;-77
2023/08/03 00:49:45;;;;;;;10.07;2.40;;;15.10;99.90;;;;;;8432167;28;20039;-77
2023/08/03 00:53:46;;;;;;;7.13;2.58;;;15.00;99.90;;;;;;8432855;28;20024;-79
2023/08/03 00:57:46;;;;;;;9.70;2.15;;;15.10;99.90;;;;;;8420306;28;20031;-79
2023/08/03 01:01:47;;;;;;;11.70;1.90;;;15.10;99.90;;;;;;8440334;28;20035;-77
2023/08/03 01:05:47;;;;;;;7.38;1.90;;;15.10;99.90;;;;;;8428846;28;20587;-78
2023/08/03 01:09:48;;;;;;;10.88;2.30;;;15.10;99.90;;;;;;8436789;28;20662;-78
2023/08/03 01:13:49;;;;;;;9.05;2.33;;;15.20;99.90;;;;;;8437570;28;20020;-78
2023/08/03 01:17:49;;;;;;;8.45;1.83;;;15.10;99.90;;;;;;8448029;28;20091;-78
2023/08/03 01:21:51;;;;;;;12.35;2.30;;;15.00;99.90;;;;;;8427682;28;20388;-78
2023/08/03 01:25:51;;;;;;;10.73;2.10;;;15.10;99.90;;;;;;8425900;28;20077;-77
2023/08/03 01:29:52;;;;;;;11.13;2.33;;;15.00;99.90;;;;;;8424755;28;20030;-78
2023/08/03 01:33:53;;;;;;;12.02;2.30;;;15.00;99.90;;;;;;8418882;28;20549;-78
2023/08/03 01:37:53;;;;;;;9.90;2.20;;;14.80;99.90;;;;;;8442665;28;20024;-78
2023/08/03 01:41:54;;;;;;;13.48;1.98;;;14.80;99.90;;;;;;8424193;28;20363;-78
2023/08/03 01:45:54;;;;;;;8.00;2.15;;;14.90;99.90;;;;;;8420069;28;20028;-78
2023/08/03 01:49:55;;;;;;;7.93;2.00;;;14.90;99.90;;;;;;8437206;28;20035;-77
2023/08/03 01:53:55;;;;;;;8.10;1.90;;;14.80;99.90;;;;;;8428428;28;20419;-78
2023/08/03 01:57:57;;;;;;;10.40;1.88;;;14.90;99.90;;;;;;8412273;28;20092;-78
2023/08/03 02:01:57;;;;;;;7.53;2.30;;;14.80;99.90;;;;;;8435507;28;20159;-78
2023/08/03 02:05:58;;;;;;;8.02;2.10;;;14.90;99.90;;;;;;8407903;28;20028;-77
2023/08/03 02:09:59;;;;;;;8.32;1.75;;;14.80;99.90;;;;;;8413859;28;20066;-78
2023/08/03 02:13:59;;;;;;;10.55;2.10;;;14.60;99.90;;;;;;8440645;28;20012;-78
2023/08/03 02:18:00;;;;;;;6.43;2.00;;;14.60;99.90;;;;;;8424599;28;20043;-77
2023/08/03 02:22:00;;;;;;;8.00;1.90;;;14.70;99.90;;;;;;8417927;28;20020;-77
2023/08/03 02:26:04;;;;;;;7.28;1.65;;;14.70;99.90;;;;;;8436047;28;20023;-77
2023/08/03 02:30:05;;;;;;;7.70;1.90;;;14.50;99.90;;;;;;8413181;28;20077;-78
2023/08/03 02:34:05;;;;;;;7.15;2.20;;;14.40;99.90;;;;;;8425588;28;20016;-78
2023/08/03 02:38:07;;;;;;;10.95;1.98;;;14.30;99.90;;;;;;8426682;28;20027;-78
2023/08/03 02:42:07;;;;;;;7.35;2.10;;;14.00;99.90;;;;;;8429761;28;20019;-78
2023/08/03 02:46:08;;;;;;;8.07;1.60;;;14.00;99.90;;;;;;8412924;28;20055;-78
2023/08/03 02:50:09;;;;;;;6.05;1.73;;;14.10;99.90;;;;;;8420902;28;20571;-77
2023/08/03 02:54:09;;;;;;;11.57;1.70;;;14.20;99.90;;;;;;8430427;28;20514;-77
2023/08/03 02:58:10;;;;;;;10.93;1.67;;;14.30;99.90;;;;;;8441777;28;20492;-77
2023/08/03 03:02:11;;;;;;;6.15;1.85;;;14.20;99.90;;;;;;8437771;28;20020;-77
2023/08/03 03:06:11;;;;;;;9.50;2.13;;;14.40;99.90;;;;;;8427742;28;20027;-78
2023/08/03 03:10:13;;;;;;;10.50;1.45;;;14.40;99.90;;;;;;8431638;28;20020;-77
2023/08/03 03:14:13;;;;;;;8.05;1.77;;;14.30;99.90;;;;;;8432815;28;20028;-78
2023/08/03 03:18:14;;;;;;;8.93;1.98;;;14.30;99.90;;;;;;8436591;28;20642;-78
2023/08/03 03:22:14;;;;;;;10.80;1.95;;;14.30;99.90;;;;;;8430184;28;20024;-78
2023/08/03 03:26:15;;;;;;;7.03;1.67;;;14.30;99.90;;;;;;8438935;28;20020;-77
2023/08/03 03:30:16;;;;;;;8.98;2.20;;;14.30;99.90;;;;;;8436629;28;20141;-77
2023/08/03 03:34:17;;;;;;;7.78;1.75;;;14.30;99.90;;;;;;8454906;28;20043;-78
2023/08/03 03:38:17;;;;;;;9.57;1.88;;;14.30;99.90;;;;;;8426748;28;20020;-77
2023/08/03 03:42:18;;;;;;;11.45;1.58;;;14.30;99.90;;;;;;8440309;28;20047;-77
2023/08/03 03:46:18;;;;;;;6.75;1.60;;;14.20;99.90;;;;;;8427377;28;20032;-77
2023/08/03 03:50:19;;;;;;;6.63;1.40;;;14.30;99.90;;;;;;8420733;28;20035;-77
2023/08/03 03:54:20;;;;;;;8.65;1.52;;;14.40;99.90;;;;;;8447192;28;20025;-78
2023/08/03 03:58:20;;;;;;;9.30;1.70;;;14.60;99.90;;;;;;8405734;28;20620;-76
2023/08/03 04:02:21;;;;;;;6.28;1.88;;;14.70;99.90;;;;;;8419516;28;20109;-78
2023/08/03 04:06:21;;;;;;;5.68;1.27;;;14.70;99.90;;;;;;8421310;28;20021;-78
2023/08/03 04:10:22;;;;;;;4.22;1.40;;;14.60;99.90;;;;;;8422527;28;20015;-79
2023/08/03 04:14:22;;;;;;;5.72;1.10;;;14.70;99.90;;;;;;8416379;28;20052;-78
2023/08/03 04:18:23;;;;;;;7.25;1.70;;;14.60;99.90;;;;;;8425733;28;20023;-78
2023/08/03 04:22:24;;;;;;;7.13;1.58;;;14.60;99.90;;;;;;8440450;28;20019;-78
2023/08/03 04:26:24;;;;;;;4.40;1.20;;;14.70;99.90;;;;;;8434018;28;20024;-78
2023/08/03 04:30:25;;;;;;;8.00;1.65;;;14.80;99.90;;;;;;8431001;28;20016;-78
2023/08/03 04:34:25;;;;;;;9.95;1.52;;;15.00;99.90;;;;;;8428756;28;20491;-78
2023/08/03 04:38:26;;;;;;;5.78;1.38;;;15.10;99.90;;;;;;8450507;28;20031;-78
2023/08/03 04:42:26;;;;;;;4.03;1.27;;;15.30;99.90;;;;;;8444020;28;20028;-78
2023/08/03 04:46:27;;;;;;;7.57;1.33;;;15.40;99.90;;;;;;8436243;28;20498;-77
2023/08/03 04:50:28;;;;;;;4.93;1.23;;;15.40;99.90;;;;;;8423431;28;20032;-77
2023/08/03 04:54:28;;;;;;;6.10;1.35;;;15.60;99.90;;;;;;8435743;28;20484;-77
2023/08/03 04:58:29;;;;;;;6.60;1.35;;;15.70;99.90;;;;;;8422869;28;20476;-77
2023/08/03 05:02:29;;;;;;;5.13;1.40;;;15.70;99.90;;;;;;8419373;28;20016;-77
2023/08/03 05:06:30;;;;;;;5.18;1.33;;;15.80;99.90;;;;;;8428536;28;20047;-78
2023/08/03 05:10:31;;;;;;;3.83;0.90;;;15.90;99.90;;;;;;8423836;28;20495;-78
2023/08/03 05:14:31;;;;;;;7.97;1.15;;;16.00;99.90;;;;;;8437695;28;20582;-78
2023/08/03 05:18:32;;;;;;;5.15;1.00;;;16.10;99.90;;;;;;8429508;28;20623;-78
2023/08/03 05:22:32;;;;;;;6.45;1.05;;;16.20;99.90;;;;;;8427242;28;20510;-77
2023/08/03 05:26:34;;;;;;;7.78;1.05;;;16.30;99.90;;;;;;8430392;28;20549;-78
2023/08/03 05:30:34;;;;;;;8.20;1.35;;;16.50;99.90;;;;;;8415200;28;20484;-79
2023/08/03 05:34:35;;;;;;;4.45;1.23;;;16.50;99.90;;;;;;8420581;28;20034;-78
2023/08/03 05:38:35;;;;;;;4.53;1.02;;;16.50;99.90;;;;;;8416082;28;20020;-78
2023/08/03 05:42:38;;;;;;;7.32;1.05;;;16.60;99.90;;;;;;8450871;28;20023;-78
2023/08/03 05:46:38;;;;;;;3.65;1.30;;;16.80;99.90;;;;;;8444779;28;20016;-78
2023/08/03 05:50:50;;;;;;;9.82;1.10;;;17.00;99.90;;;;;;8414969;28;20062;-77
2023/08/03 05:54:53;;;;;;;5.05;0.85;;;17.10;99.90;;;;;;8412480;28;20442;-77
2023/08/03 05:58:54;;;;;;;3.15;1.00;;;17.50;99.90;;;;;;8432390;28;20019;-78
2023/08/03 06:02:57;;;;;;;4.20;0.82;;;18.30;99.90;;;;;;8411938;28;20026;-77
2023/08/03 06:07:01;;;;;;;3.33;0.80;;;19.20;99.90;;;;;;8440855;28;20400;-77
2023/08/03 06:11:04;;;;;;;4.25;1.00;;;20.00;99.90;;;;;;8417556;28;20076;-78
2023/08/03 06:15:05;;;;;;;3.13;0.80;;;20.30;99.90;;;;;;8416608;28;20111;-77
2023/08/03 06:19:09;;;;;;;3.75;0.80;;;20.70;99.90;;;;;;8426178;28;20483;-77
2023/08/03 06:23:20;;;;;;;5.05;0.77;;;20.70;99.90;;;;;;8437397;28;20047;-77
2023/08/03 06:27:20;;;;;;;3.38;0.90;;;20.50;99.90;;;;;;8422907;28;20034;-78
2023/08/03 06:31:34;;;;;;;3.72;0.90;;;20.40;99.90;;;;;;8429402;28;20036;-78
2023/08/03 06:35:38;;;;;;;4.28;0.98;;;21.00;99.90;;;;;;8442939;28;20081;-79
2023/08/03 06:39:38;;;;;;;5.03;0.90;;;21.40;99.90;;;;;;8415099;28;20016;-79
2023/08/03 06:43:39;;;;;;;2.83;0.82;;;21.20;99.90;;;;;;8426736;28;20031;-79
2023/08/03 06:47:40;;;;;;;6.10;1.23;;;21.40;99.90;;;;;;8449432;28;20110;-78
2023/08/03 06:51:40;;;;;;;4.07;0.73;;;21.30;99.90;;;;;;8432840;28;20081;-79
2023/08/03 06:55:44;;;;;;;3.45;0.70;;;21.10;99.90;;;;;;8448143;28;20550;-78
2023/08/03 06:59:44;;;;;;;3.65;0.85;;;21.40;99.90;;;;;;8441798;28;20016;-78
2023/08/03 07:03:45;;;;;;;7.32;0.93;;;21.40;99.90;;;;;;8441437;28;20020;-79
2023/08/03 07:07:45;;;;;;;2.20;0.70;;;21.50;99.90;;;;;;8440866;28;20031;-79
2023/08/03 07:11:46;;;;;;;2.08;0.80;;;22.00;99.90;;;;;;8420803;28;20088;-78
2023/08/03 07:15:46;;;;;;;2.83;0.85;;;22.20;99.90;;;;;;8444172;28;20027;-78
2023/08/03 07:19:51;;;;;;;5.95;0.88;;;22.40;99.90;;;;;;8429617;28;20020;-79
2023/08/03 07:23:52;;;;;;;3.45;0.70;;;22.30;99.90;;;;;;8408906;28;20106;-78
2023/08/03 07:27:53;;;;;;;4.28;0.90;;;22.60;99.90;;;;;;8434015;28;20027;-80
2023/08/03 07:31:54;;;;;;;1.77;0.60;;;22.70;99.90;;;;;;8421843;28;20069;-78
2023/08/03 07:35:54;;;;;;;1.58;0.52;;;22.90;99.90;;;;;;8432077;28;20058;-79
2023/08/03 07:39:55;;;;;;;1.83;0.45;;;22.20;99.90;;;;;;8430181;28;20032;-79
2023/08/03 07:43:55;;;;;;;2.10;0.55;;;22.50;99.90;;;;;;8422606;28;20024;-78
2023/08/03 07:47:56;;;;;;;2.00;0.82;;;22.60;99.90;;;;;;8430189;28;20506;-78
2023/08/03 07:51:56;;;;;;;1.08;0.55;;;22.00;99.90;;;;;;8426484;28;20039;-79
2023/08/03 07:55:57;;;;;;;2.13;0.65;;;22.50;99.90;;;;;;8427785;28;20056;-78
2023/08/03 07:59:57;;;;;;;1.23;0.50;;;22.50;99.90;;;;;;8429861;28;20479;-79
2023/08/03 08:03:58;;;;;;;1.85;0.60;;;22.20;99.90;;;;;;8432196;28;20029;-78
2023/08/03 08:07:59;;;;;;;2.22;0.60;;;22.20;99.90;;;;;;8410205;28;20506;-79
2023/08/03 08:11:59;;;;;;;3.63;0.60;;;22.00;99.90;;;;;;8430923;28;20031;-79
2023/08/03 08:16:08;;;;;;;2.72;0.40;;;22.20;99.90;;;;;;8432616;28;20058;-79
2023/08/03 08:20:09;;;;;;;5.43;0.75;;;22.50;99.90;;;;;;8437885;28;20020;-79
2023/08/03 08:24:10;;;;;;;2.20;0.63;;;22.60;99.90;;;;;;8416206;28;20433;-79
2023/08/03 08:28:10;;;;;;;1.92;0.50;;;22.80;99.90;;;;;;8436038;28;20076;-79
2023/08/03 08:32:11;;;;;;;2.03;0.47;;;23.10;99.90;;;;;;8421981;28;20091;-79
2023/08/03 08:36:11;;;;;;;2.85;0.77;;;23.50;99.90;;;;;;8435186;28;20028;-80
2023/08/03 08:40:12;;;;;;;1.92;0.50;;;23.80;99.90;;;;;;8421205;28;20546;-79
2023/08/03 08:44:14;;;;;;;2.25;0.50;;;23.60;99.90;;;;;;8426242;28;20027;-79
2023/08/03 08:48:14;;;;;;;2.25;0.52;;;23.70;99.90;;;;;;8437910;28;20711;-80
2023/08/03 08:52:16;;;;;;;1.15;0.50;;;23.70;99.90;;;;;;8447901;28;20026;-79
2023/08/03 08:56:17;;;;;;;2.42;0.70;;;23.50;99.90;;;;;;8433113;28;20457;-79
2023/08/03 09:00:19;;;;;;;1.75;0.52;;;23.30;99.90;;;;;;8441687;28;20072;-80
2023/08/03 09:04:38;;;;;;;3.50;0.65;;;23.50;99.90;;;;;;8436517;28;20115;-80
2023/08/03 09:09:08;;;;;;;1.52;0.60;;;23.60;99.90;;;;;;8417716;28;20106;-79
2023/08/03 09:13:08;;;;;;;0.98;0.40;;;23.50;99.90;;;;;;8409795;28;20036;-79
2023/08/03 09:17:20;;;;;;;0.50;0.30;;;23.70;99.90;;;;;;8427812;28;20395;-79
2023/08/03 09:21:20;;;;;;;1.75;0.52;;;23.30;99.90;;;;;;8455575;28;20031;-79
2023/08/03 09:25:21;;;;;;;1.75;0.85;;;22.70;99.90;;;;;;8433885;28;20040;-79
2023/08/03 09:29:22;;;;;;;2.58;0.40;;;22.20;99.90;;;;;;8440421;28;20030;-80
2023/08/03 09:33:23;;;;;;;1.90;0.60;;;22.30;99.90;;;;;;8441526;28;20393;-79
2023/08/03 09:37:36;;;;;;;4.85;0.80;;;22.60;99.90;;;;;;8432715;28;20047;-80
2023/08/03 09:41:37;;;;;;;2.63;0.50;;;22.70;99.90;;;;;;8448959;28;20376;-79
2023/08/03 09:45:38;;;;;;;2.42;0.65;;;22.70;99.90;;;;;;8461157;28;20024;-80
2023/08/03 09:49:38;;;;;;;6.05;0.73;;;23.00;99.90;;;;;;8436341;28;20031;-78
2023/08/03 09:53:41;;;;;;;1.00;0.55;;;22.80;99.90;;;;;;8422199;28;20027;-79
2023/08/03 09:57:47;;;;;;;1.85;0.43;;;22.80;99.90;;;;;;8447696;28;20023;-81
2023/08/03 10:01:51;;;;;;;2.80;0.63;;;22.60;99.90;;;;;;8420300;28;20040;-79
2023/08/03 10:06:03;;;;;;;3.42;0.85;;;22.60;99.90;;;;;;8421539;28;20038;-79
2023/08/03 10:10:05;;;;;;;2.05;0.65;;;22.20;99.90;;;;;;8431901;28;20116;-78
2023/08/03 10:14:09;;;;;;;1.98;0.40;;;21.80;99.90;;;;;;8442990;28;20031;-80
2023/08/03 10:18:10;;;;;;;2.63;0.70;;;22.10;99.90;;;;;;8423941;28;20517;-79
2023/08/03 10:22:11;;;;;;;3.50;0.40;;;22.90;99.90;;;;;;8438886;28;20481;-80
2023/08/03 10:26:22;;;;;;;2.15;0.50;;;22.60;99.90;;;;;;8417981;28;20081;-79
2023/08/03 10:30:22;;;;;;;;;;;22.70;99.90;;;;;;8455214;28;20016;-79
2023/08/03 10:34:25;;;;;;;0.70;0.40;;;23.10;99.90;;;;;;8425252;28;19908;-80
2023/08/03 10:38:28;;;;;;;1.92;0.43;;;23.60;99.90;;;;;;8432720;28;20050;-79
2023/08/03 10:42:32;;;;;;;1.70;0.65;;;24.20;99.90;;;;;;8411539;28;20032;-79
2023/08/03 10:46:38;;;;;;;1.25;0.43;;;24.10;99.90;;;;;;8434227;28;20013;-80
2023/08/03 10:50:59;;;;;;;1.27;0.40;;;23.10;99.90;;;;;;8453025;22;20019;-78
2023/08/03 10:55:24;;;;;;;3.25;0.50;;;24.50;99.90;;;;;;8376203;28;20037;-79
2023/08/03 10:59:25;;;;;;;1.05;0.43;;;25.80;99.90;;;;;;8373906;28;20078;-79
2023/08/03 11:03:36;;;;;;;1.58;0.77;;;26.30;99.90;;;;;;8402683;28;20077;-79
2023/08/03 11:07:38;;;;;;;2.33;0.40;;;26.50;96.10;;;;;;8404470;28;20020;-80
2023/08/03 11:11:40;;;;;;;1.85;0.50;;;25.40;99.90;;;;;;8424428;28;20067;-79
2023/08/03 11:15:41;;;;;;;1.05;0.65;;;24.90;97.60;;;;;;8405958;28;20020;-79
2023/08/03 11:19:43;;;;;;;1.48;0.50;;;24.00;98.20;;;;;;8426073;28;20051;-79
2023/08/03 11:23:43;;;;;;;1.77;0.50;;;23.30;98.30;;;;;;8407120;28;20121;-79
2023/08/03 11:27:44;;;;;;;0.40;0.40;;;23.20;98.40;;;;;;8407094;28;20035;-80
2023/08/03 11:31:44;;;;;;;1.17;0.50;;;23.20;99.90;;;;;;8413894;28;20120;-79
2023/08/03 11:35:45;;;;;;;2.25;0.50;;;23.90;96.50;;;;;;8431219;28;20495;-79
2023/08/03 11:39:45;;;;;;;1.02;0.47;;;24.50;97.70;;;;;;8415513;28;20012;-78
2023/08/03 11:43:47;;;;;;;3.70;1.30;;;25.10;95.60;;;;;;8409436;28;20597;-80
2023/08/03 11:47:48;;;;;;;0.98;0.52;;;25.00;97.80;;;;;;8411720;28;20024;-80
2023/08/03 11:51:49;;;;;;;0.32;0.20;;;27.10;93.90;;;;;;8430318;28;20055;-80
2023/08/03 11:55:49;;;;;;;1.38;0.30;;;28.30;90.40;;;;;;8418506;28;20028;-81
2023/08/03 11:59:50;;;;;;;1.65;0.50;;;28.60;94.40;;;;;;8418123;28;20425;-80
2023/08/03 12:04:04;;;;;;;0.70;0.47;;;29.00;87.10;;;;;;8436069;28;20028;-81
2023/08/03 12:08:09;;;;;;;2.58;0.40;;;29.00;89.60;;;;;;8436886;28;20031;-79
2023/08/03 12:12:11;;;;;;;0.93;0.40;;;29.00;91.40;;;;;;8416495;28;20086;-79
2023/08/03 12:16:11;;;;;;;1.65;0.60;;;28.70;90.80;;;;;;8416850;28;20028;-80
2023/08/03 12:20:12;;;;;;;2.13;0.40;;;28.70;92.70;;;;;;8416533;28;20024;-80
2023/08/03 12:24:13;;;;;;;0.52;0.40;;;28.80;92.30;;;;;;8433317;28;20543;-80
2023/08/03 12:28:14;;;;;;;1.95;0.30;;;29.20;90.10;;;;;;8414721;28;20036;-80
2023/08/03 12:32:15;;;;;;;0.82;0.50;;;27.30;87.50;;;;;;8432119;28;20024;-80
2023/08/03 12:36:17;;;;;;;1.15;0.45;;;28.00;90.90;;;;;;8413485;28;20518;-80
2023/08/03 12:40:17;;;;;;;1.00;0.40;;;26.40;90.40;;;;;;8413644;28;20550;-80
2023/08/03 12:44:18;;;;;;;1.30;0.47;;;27.60;89.80;;;;;;8409197;28;20125;-81
2023/08/03 12:48:18;;;;;;;1.70;0.60;;;30.10;85.00;;;;;;8437149;28;20079;-79
2023/08/03 12:52:19;;;;;;;1.35;1.25;;;30.80;75.50;;;;;;8415899;28;20032;-80
2023/08/03 12:56:20;;;;;;;2.10;0.38;;;30.60;77.30;;;;;;8416298;28;20541;-80
2023/08/03 13:00:23;;;;;;;1.50;0.22;;;31.70;76.80;;;;;;8412054;28;20054;-80
2023/08/03 13:04:23;;;;;;;1.08;0.35;;;32.50;68.90;;;;;;8411015;28;20463;-79
2023/08/03 13:08:24;;;;;;;0.65;0.40;;;32.90;65.30;;;;;;8436290;28;20035;-78
2023/08/03 13:12:24;;;;;;;0.50;0.20;;;30.00;72.30;;;;;;8431925;28;20035;-80
2023/08/03 13:16:25;;;;;;;0.43;0.30;;;29.60;72.60;;;;;;8411072;28;20058;-79
2023/08/03 13:20:26;;;;;;;1.23;0.40;;;29.40;78.10;;;;;;8429515;28;20020;-80
2023/08/03 13:24:26;;;;;;;1.17;0.50;;;29.30;72.50;;;;;;8435727;28;20047;-80
2023/08/03 13:28:27;;;;;;;3.13;0.55;;;29.80;72.90;;;;;;8411680;28;20100;-79
2023/08/03 13:32:27;;;;;;;1.17;0.50;;;30.70;73.30;;;;;;8410382;28;20024;-79
2023/08/03 13:36:28;;;;;;;1.13;0.60;;;30.70;72.10;;;;;;8430583;28;20023;-79
2023/08/03 13:40:28;;;;;;;1.50;0.50;;;29.10;74.70;;;;;;8409996;28;20013;-80
2023/08/03 13:44:29;;;;;;;1.77;0.50;;;29.60;75.70;;;;;;8408976;28;20393;-79
2023/08/03 13:48:29;;;;;;;1.02;0.50;;;30.30;68.10;;;;;;8426357;28;20164;-79
2023/08/03 13:52:30;;;;;;;1.75;0.50;;;31.30;70.00;;;;;;8407797;28;20134;-79
2023/08/03 13:56:30;;;;;;;1.75;0.40;;;31.20;67.60;;;;;;8425834;28;20111;-78
2023/08/03 14:00:31;;;;;;;0.60;0.30;;;30.20;70.90;;;;;;8407988;28;20024;-80
2023/08/03 14:04:34;;;;;;;1.20;0.40;;;30.90;65.80;;;;;;8425159;28;20040;-79
2023/08/03 14:08:34;;;;;;;1.40;0.50;;;31.50;66.10;;;;;;8407823;28;20031;-80
2023/08/03 14:12:36;;;;;;;6.35;0.95;;;31.40;63.60;;;;;;8405745;28;20111;-79
2023/08/03 14:16:36;;;;;;;2.38;0.40;;;28.70;71.60;;;;;;8408658;28;20445;-79
2023/08/03 14:20:37;;;;;;;1.58;0.60;;;26.50;75.10;;;;;;8408733;28;20027;-79
2023/08/03 14:24:37;;;;;;;1.38;0.60;;;25.70;81.50;;;;;;8408556;28;20407;-78
2023/08/03 14:28:39;;;;;;;2.78;0.70;;;25.00;86.20;;;;;;8406552;28;20027;-80
2023/08/03 14:32:40;;;;;;;1.13;0.57;;;24.10;86.50;;;;;;8407401;28;20044;-80
2023/08/03 14:36:40;;;;;;;2.15;0.57;;;25.40;85.80;;;;;;8409490;28;20484;-79
2023/08/03 14:40:41;;;;;;;1.05;0.77;;;28.50;83.20;;;;;;8407092;28;20016;-79
2023/08/03 14:44:41;;;;;;;1.90;0.50;;;28.90;72.70;;;;;;8423483;28;20020;-79
2023/08/03 14:48:43;;;;;;;2.00;0.50;;;28.70;74.00;;;;;;8414957;28;20020;-78
2023/08/03 14:52:43;;;;;;;1.45;0.70;;;30.80;70.70;;;;;;8411426;28;20028;-79
2023/08/03 14:56:44;;;;;;;1.08;0.50;;;30.60;67.00;;;;;;8425392;28;20545;-79
2023/08/03 15:00:44;;;;;;;1.70;0.65;;;28.20;72.80;;;;;;8408158;28;20027;-80
2023/08/03 15:04:46;;;;;;;0.98;0.50;;;27.10;74.20;;;;;;8424954;28;20095;-79
2023/08/03 15:08:47;;;;;;;2.95;0.65;;;28.80;79.10;;;;;;8414392;28;20024;-80
2023/08/03 15:12:47;;;;;;;1.67;0.55;;;27.30;79.90;;;;;;8430166;28;20109;-80
2023/08/03 15:16:48;;;;;;;0.60;0.30;;;29.50;73.20;;;;;;8415639;28;20388;-79
2023/08/03 15:20:48;;;;;;;1.10;0.60;;;28.50;72.90;;;;;;8415108;28;20048;-80
2023/08/03 15:24:49;;;;;;;0.57;0.32;;;30.00;72.20;;;;;;8416203;28;20024;-80
2023/08/03 15:28:50;;;;;;;1.38;0.55;;;31.30;66.30;;;;;;8432214;28;20065;-80
2023/08/03 15:32:50;;;;;;;1.63;0.60;;;28.90;69.80;;;;;;8420802;28;20490;-80
2023/08/03 15:36:51;;;;;;;1.98;0.50;;;30.90;71.10;;;;;;8419242;28;20027;-80
2023/08/03 15:40:51;;;;;;;0.70;0.47;;;32.30;70.40;;;;;;8432002;28;20025;-81
2023/08/03 15:44:52;;;;;;;0.73;0.47;;;31.60;62.60;;;;;;8431951;28;20097;-80
2023/08/03 15:48:53;;;;;;;2.08;0.47;;;28.70;67.40;;;;;;8411506;28;20024;-81
2023/08/03 15:52:54;;;;;;;0.50;0.30;;;27.60;71.80;;;;;;8416932;28;20032;-80
2023/08/03 15:56:54;;;;;;;0.88;0.50;;;26.20;77.20;;;;;;8416857;28;20456;-81
2023/08/03 16:00:56;;;;;;;1.38;0.50;;;25.60;78.70;;;;;;8415659;28;20020;-80
2023/08/03 16:04:57;;;;;;;1.73;0.47;;;25.10;76.50;;;;;;8418421;28;20111;-78
2023/08/03 16:08:58;;;;;;;3.90;0.70;;;24.60;77.90;;;;;;8419208;28;20039;-79
2023/08/03 16:12:59;;;;;;;1.30;0.30;;;24.30;81.30;;;;;;8426349;28;20032;-79
2023/08/03 16:17:00;;;;;;;0.90;0.47;;;23.90;79.90;;;;;;8413495;28;20024;-80
2023/08/03 16:21:05;;;;;;;2.30;0.40;;;23.70;81.20;;;;;;8417276;28;20070;-78
2023/08/03 16:25:06;;;;;;;0.82;0.25;;;23.90;83.10;;;;;;8436000;28;20027;-81
2023/08/03 16:29:07;;;;;;;0.93;0.40;;;23.70;83.10;;;;;;8404976;28;20031;-79
2023/08/03 16:33:07;;;;;;;2.42;0.50;;;23.50;83.90;;;;;;8418520;28;20118;-81
2023/08/03 16:37:08;;;;;;;0.68;0.38;;;23.70;88.20;;;;;;8406142;28;20028;-79
2023/08/03 16:41:10;;;;;;;1.30;0.75;;;23.60;84.90;;;;;;8426673;28;20050;-78
2023/08/03 16:45:10;;;;;;;1.08;0.43;;;23.50;84.40;;;;;;8414521;28;20475;-78
2023/08/03 16:49:11;;;;;;;1.48;0.52;;;23.30;87.30;;;;;;8424222;28;20089;-79
2023/08/03 16:53:11;;;;;;;2.65;0.40;;;23.20;86.70;;;;;;8422228;28;20078;-79
2023/08/03 16:57:12;;;;;;;1.98;0.60;;;22.90;88.60;;;;;;8409344;28;20052;-79
2023/08/03 17:01:13;;;;;;;2.22;0.40;;;22.90;90.60;;;;;;8424098;28;20028;-77
2023/08/03 17:05:14;;;;;;;0.80;0.32;;;22.80;88.00;;;;;;8443606;28;20027;-78
2023/08/03 17:09:15;;;;;;;1.77;0.43;;;22.50;86.30;;;;;;8425669;28;20028;-79
2023/08/03 17:13:16;;;;;;;0.35;0.20;;;22.60;88.00;;;;;;8401467;22;20058;-81
2023/08/03 17:17:16;;;;;;;0.63;0.30;;;22.70;90.10;;;;;;8206038;28;20031;-81
2023/08/03 17:21:17;;;;;;;1.08;0.50;;;22.80;87.60;;;;;;8206409;28;20465;-81
2023/08/03 17:25:17;;;;;;;2.53;0.40;;;22.50;90.60;;;;;;8245263;28;20086;-81
2023/08/03 17:29:18;;;;;;;1.17;0.45;;;22.20;88.00;;;;;;8236360;28;20028;-81
2023/08/03 17:33:18;;;;;;;0.98;0.35;;;22.00;86.70;;;;;;8235182;28;20024;-80
2023/08/03 17:37:19;;;;;;;2.08;0.45;;;21.70;86.40;;;;;;8230027;28;20051;-81
2023/08/03 17:41:19;;;;;;;1.40;0.45;;;21.50;89.90;;;;;;8164671;28;20475;-80
2023/08/03 17:45:20;;;;;;;2.65;0.30;;;21.40;88.80;;;;;;8237675;28;20028;-80
2023/08/03 17:49:21;;;;;;;1.85;0.40;;;21.20;91.80;;;;;;8249539;28;20081;-80
2023/08/03 17:53:21;;;;;;;0.75;0.40;;;20.90;90.80;;;;;;8168754;28;20034;-80
2023/08/03 17:57:22;;;;;;;1.17;0.50;;;20.70;91.20;;;;;;8226654;28;20034;-81
2023/08/03 18:01:25;;;;;;;2.65;0.60;;;20.40;94.30;;;;;;8240688;28;20019;-81
2023/08/03 18:05:26;;;;;;;0.90;0.50;;;20.20;93.40;;;;;;8247885;28;20031;-81
2023/08/03 18:09:28;;;;;;;1.05;0.50;;;20.10;93.10;;;;;;8235788;28;20031;-81
2023/08/03 18:13:30;;;;;;;0.43;0.40;;;19.90;94.80;;;;;;8177795;28;20031;-81
2023/08/03 18:17:30;;;;;;;0.57;0.47;;;19.80;96.20;;;;;;8167331;28;20050;-81
2023/08/03 18:21:31;;;;;;;0.30;0.30;;;19.60;96.20;;;;;;8230722;28;20024;-80
2023/08/03 18:25:32;;;;;;;0.60;0.30;;;19.60;97.00;;;;;;8173344;28;20031;-80
2023/08/03 18:29:33;;;;;;;4.03;0.63;;;19.40;97.30;;;;;;8228438;28;20020;-80
2023/08/03 18:33:35;;;;;;;1.42;0.50;;;19.30;97.50;;;;;;8231102;28;20403;-81
2023/08/03 18:37:36;;;;;;;4.57;0.50;;;19.30;98.60;;;;;;8239546;28;20109;-81
2023/08/03 18:41:36;;;;;;;0.70;0.30;;;19.30;98.40;;;;;;8172905;28;20035;-81
2023/08/03 18:45:37;;;;;;;1.27;0.50;;;19.20;99.50;;;;;;8228092;28;20162;-81
2023/08/03 18:49:37;;;;;;;2.30;0.50;;;19.10;99.90;;;;;;8225148;28;20023;-80
2023/08/03 18:53:40;;;;;;;1.58;0.40;;;19.00;99.90;;;;;;8172903;28;20443;-81
2023/08/03 18:57:41;;;;;;;1.80;0.35;;;19.10;99.80;;;;;;8230571;28;20503;-80
2023/08/03 19:01:41;;;;;;;5.10;0.35;;;19.00;99.90;;;;;;8233168;28;20032;-80
2023/08/03 19:05:42;;;;;;;1.00;0.50;;;18.90;99.90;;;;;;8241397;28;20020;-81
2023/08/03 19:09:43;;;;;;;3.25;0.60;;;18.90;99.90;;;;;;8237105;28;20031;-81
2023/08/03 19:13:44;;;;;;;1.05;0.40;;;19.00;99.90;;;;;;8229967;28;20059;-81
2023/08/03 19:17:44;;;;;;;3.08;0.68;;;18.70;99.90;;;;;;8163289;28;20030;-81
2023/08/03 19:21:45;;;;;;;1.13;0.50;;;18.80;99.90;;;;;;8234012;28;20016;-80
2023/08/03 19:25:46;;;;;;;1.05;0.47;;;18.40;99.90;;;;;;8230717;28;20028;-81
2023/08/03 19:29:48;;;;;;;3.55;0.73;;;18.00;99.90;;;;;;8234160;28;20032;-81
2023/08/03 19:33:48;;;;;;;1.17;0.50;;;17.80;99.90;;;;;;8233235;28;20170;-81
2023/08/03 19:37:49;;;;;;;3.80;1.58;;;17.60;99.90;;;;;;8224397;28;20276;-81
2023/08/03 19:41:53;;;;;;;2.22;1.42;;;17.50;99.90;;;;;;8224111;28;20027;-81
2023/08/03 19:45:53;;;;;;;3.50;2.35;;;17.40;99.90;;;;;;8234790;28;20037;-81
2023/08/03 19:49:54;;;;;;;6.50;3.50;;;17.30;99.90;;;;;;8159395;28;20043;-81
2023/08/03 19:53:54;;;;;;;3.95;1.90;;;17.10;99.90;;;;;;8244938;28;20542;-81
2023/08/03 19:57:55;;;;;;;4.13;2.55;;;17.00;99.90;;;;;;8243660;28;20111;-81
2023/08/03 20:01:55;;;;;;;5.72;2.42;;;16.90;99.90;;;;;;8171254;28;20055;-81
2023/08/03 20:05:57;;;;;;;3.25;1.85;;;17.30;99.90;;;;;;8176951;28;20515;-82
2023/08/03 20:09:59;;;;;;;2.53;1.10;;;16.80;99.90;;;;;;8172702;28;20035;-81
2023/08/03 20:13:59;;;;;;;2.25;0.80;;;16.40;99.90;;;;;;8239931;28;20037;-81
2023/08/03 20:18:00;;;;;;;3.45;0.90;;;16.20;99.90;;;;;;8255718;28;20023;-81
2023/08/03 20:22:00;;;;;;;1.20;0.90;;;16.00;99.90;;;;;;8256879;28;20111;-82
2023/08/03 20:26:01;;;;;;;2.25;1.00;;;16.10;99.90;;;;;;8174100;29;20484;-81
2023/08/03 20:30:07;;;;;;;1.75;0.90;;;16.10;99.90;;;;;;8182746;29;20028;-81
2023/08/03 20:34:07;;;;;;;2.47;0.65;;;16.10;99.90;;;;;;8255678;28;20110;-81
2023/08/03 20:38:08;;;;;;;4.85;0.70;;;16.20;99.90;;;;;;8242136;28;20028;-81
2023/08/03 20:42:08;;;;;;;1.83;0.85;;;16.40;99.90;;;;;;8234945;28;20491;-80
2023/08/03 20:46:09;;;;;;;2.08;0.98;;;16.10;99.90;;;;;;8172103;28;20093;-81
2023/08/03 20:50:10;;;;;;;3.08;0.80;;;15.90;99.90;;;;;;8193164;28;20082;-80
2023/08/03 20:54:10;;;;;;;1.83;0.70;;;15.20;99.90;;;;;;8241038;28;20032;-81